.
WxDataArchive / Data Records for 2007-11-01
2007-10-31 November 2007 2007-11-02

Data Records for Thursday, 01 November 2007

Time	Temp	Chill	HIndex	Humid	Dewpt	 Wind 	HiWind	WindDir	Rain 	Barom 
-----	----	-----	------	-----	-----	------	------	-------	-----	----- 
00:00	49.1	49.1	49.1	54	33.2	0	2	292	0.00	30.036 
00:05	48.8	48.8	48.8	55	33.4	0	2	225	0.00	30.036 
00:10	48.5	48.5	48.5	55	33.1	0	1	225	0.00	30.037 
00:15	48.2	48.2	48.2	56	33.2	0	1	225	0.00	30.038 
00:20	48.0	48.0	48.0	56	33.1	0	1	292	0.00	30.040 
00:25	47.7	47.7	47.7	57	33.2	0	1	292	0.00	30.043 
00:30	47.4	47.4	47.4	57	32.9	0	1	292	0.00	30.046 
00:35	47.3	47.3	47.3	57	32.8	0	2	270	0.00	30.048 
00:40	47.1	47.1	47.1	58	33.1	0	1	270	0.00	30.050 
00:45	46.8	46.8	46.8	58	32.8	0	1	270	0.00	30.049 
00:50	46.4	46.4	46.4	59	32.9	0	1	270	0.00	30.049 
00:55	46.1	46.1	46.1	59	32.6	0	1	270	0.00	30.051 
01:00	45.8	45.8	45.8	60	32.7	0	1	270	0.00	30.052 
01:05	45.7	45.7	45.7	60	32.6	0	1	270	0.00	30.050 
01:10	45.4	45.4	45.4	61	32.7	0	1	270	0.00	30.051 
01:15	45.1	45.1	45.1	62	32.9	0	0	---	0.00	30.053 
01:20	44.6	44.6	44.6	62	32.4	0	1	270	0.00	30.054 
01:25	44.3	44.3	44.3	63	32.5	0	1	270	0.00	30.054 
01:30	44.1	44.1	44.1	63	32.3	0	1	270	0.00	30.055 
01:35	43.9	43.9	43.9	63	32.1	0	1	270	0.00	30.054 
01:40	43.8	43.8	43.8	64	32.4	0	1	270	0.00	30.055 
01:45	43.5	43.5	43.5	64	32.1	0	1	270	0.00	30.057 
01:50	43.3	43.3	43.3	65	32.3	0	1	270	0.00	30.061 
01:55	43.2	43.2	43.2	65	32.2	0	1	270	0.00	30.063 
02:00	43.1	43.1	43.1	65	32.1	0	1	270	0.00	30.065 
02:05	43.1	43.1	43.1	65	32.1	0	1	270	0.00	30.066 
02:10	43.1	43.1	43.1	64	31.8	0	1	270	0.00	30.067 
02:15	43.1	43.1	43.1	64	31.8	0	1	270	0.00	30.069 
02:20	43.1	43.1	43.1	64	31.8	0	1	270	0.00	30.069 
02:25	43.1	43.1	43.1	64	31.8	0	1	270	0.00	30.070 
02:30	42.9	42.9	42.9	64	31.6	0	1	270	0.00	30.071 
02:35	42.8	42.8	42.8	65	31.9	0	1	270	0.00	30.072 
02:40	42.6	42.6	42.6	65	31.7	0	1	270	0.00	30.076 
02:45	42.5	42.5	42.5	65	31.6	0	1	270	0.00	30.078 
02:50	42.3	42.3	42.3	65	31.4	0	1	270	0.00	30.081 
02:55	42.1	42.1	42.1	66	31.6	0	1	270	0.00	30.080 
03:00	41.9	41.9	41.9	66	31.4	0	1	270	0.00	30.082 
03:05	41.6	41.6	41.6	66	31.1	0	0	---	0.00	30.085 
03:10	41.5	41.5	41.5	67	31.4	0	1	270	0.00	30.085 
03:15	41.3	41.3	41.3	67	31.2	0	0	---	0.00	30.088 
03:20	41.1	41.1	41.1	68	31.4	0	1	270	0.00	30.089 
03:25	40.8	40.8	40.8	68	31.1	0	1	270	0.00	30.088 
03:30	40.6	40.6	40.6	69	31.2	0	0	---	0.00	30.088 
03:35	40.5	40.5	40.5	69	31.1	0	0	---	0.00	30.088 
03:40	40.3	40.3	40.3	69	31.0	0	1	270	0.00	30.089 
03:45	40.2	40.2	40.2	69	30.9	0	1	270	0.00	30.090 
03:50	40.1	40.1	40.1	70	31.1	0	1	270	0.00	30.090 
03:55	39.8	39.8	39.8	70	30.8	0	1	270	0.00	30.091 
04:00	39.6	39.6	39.6	70	30.6	0	1	270	0.00	30.093 
04:05	39.5	39.5	39.5	71	30.9	0	1	270	0.00	30.094 
04:10	39.5	39.5	39.5	71	30.9	0	1	270	0.00	30.096 
04:15	39.3	39.3	39.3	71	30.7	0	1	270	0.00	30.100 
04:20	39.3	39.3	39.3	71	30.7	0	1	270	0.00	30.101 
04:25	39.2	39.2	39.2	71	30.6	0	1	270	0.00	30.102 
04:30	38.9	38.9	38.9	72	30.7	0	0	---	0.00	30.103 
04:35	38.6	38.6	38.6	73	30.7	0	0	---	0.00	30.105 
04:40	38.3	38.3	38.3	73	30.4	0	0	---	0.00	30.105 
04:45	38.2	38.2	38.2	74	30.7	0	1	270	0.00	30.105 
04:50	37.9	37.9	37.9	74	30.4	0	1	270	0.00	30.106 
04:55	37.8	37.8	37.8	74	30.3	0	1	270	0.00	30.106 
05:00	37.8	37.8	37.8	75	30.6	0	1	270	0.00	30.108 
05:05	37.6	37.6	37.6	75	30.4	0	0	---	0.00	30.110 
05:10	37.5	37.5	37.5	75	30.3	0	1	270	0.00	30.111 
05:15	37.3	37.3	37.3	76	30.4	0	1	270	0.00	30.114 
05:20	37.3	37.3	37.3	75	30.1	0	1	270	0.00	30.117 
05:25	37.3	37.3	37.3	75	30.1	0	1	270	0.00	30.119 
05:30	37.3	37.3	37.3	75	30.1	0	1	270	0.00	30.122 
05:35	37.3	37.3	37.3	75	30.1	0	1	270	0.00	30.123 
05:40	37.3	37.3	37.3	75	30.1	0	1	270	0.00	30.124 
05:45	37.2	37.2	37.2	75	30.0	0	1	270	0.00	30.125 
05:50	37.0	37.0	37.0	76	30.2	0	0	---	0.00	30.128 
05:55	36.8	36.8	36.8	76	30.0	0	1	270	0.00	30.130 
06:00	36.8	36.8	36.8	77	30.3	0	1	270	0.00	30.132 
06:05	36.6	36.6	36.6	77	30.1	0	1	270	0.00	30.137 
06:10	36.6	36.6	36.6	77	30.1	0	1	270	0.00	30.138 
06:15	36.5	36.5	36.5	77	30.0	0	1	270	0.00	30.141 
06:20	36.5	36.5	36.5	77	30.0	0	1	270	0.00	30.141 
06:25	36.5	36.5	36.5	77	30.0	0	1	270	0.00	30.142 
06:30	36.5	36.5	36.5	77	30.0	0	2	270	0.00	30.143 
06:35	36.5	36.5	36.5	77	30.0	0	1	270	0.00	30.143 
06:40	36.5	36.5	36.5	77	30.0	0	1	270	0.00	30.143 
06:45	36.3	36.3	36.3	77	29.8	0	1	270	0.00	30.143 
06:50	36.2	36.2	36.2	77	29.7	0	1	270	0.00	30.147 
06:55	36.2	36.2	36.2	77	29.7	0	1	270	0.00	30.147 
07:00	36.2	36.2	36.2	77	29.7	0	1	270	0.00	30.148 
07:05	36.2	36.2	36.2	77	29.7	0	1	270	0.00	30.157 
07:10	36.0	36.0	36.0	77	29.5	0	1	270	0.00	30.157 
07:15	36.0	36.0	36.0	78	29.8	0	1	270	0.00	30.160 
07:20	35.9	35.9	35.9	78	29.7	0	1	270	0.00	30.161 
07:25	35.9	35.9	35.9	78	29.7	0	1	270	0.00	30.163 
07:30	35.9	35.9	35.9	78	29.7	0	1	270	0.00	30.164 
07:35	36.0	36.0	36.0	78	29.8	0	2	270	0.00	30.164 
07:40	36.2	36.2	36.2	77	29.7	0	1	248	0.00	30.165 
07:45	36.3	36.3	36.3	77	29.8	0	1	248	0.00	30.168 
07:50	36.5	36.5	36.5	77	30.0	0	1	248	0.00	30.168 
07:55	36.8	36.8	36.8	77	30.3	0	1	248	0.00	30.171 
08:00	37.0	37.0	37.0	76	30.2	0	2	248	0.00	30.175 
08:05	37.3	37.3	37.3	75	30.1	0	1	248	0.00	30.177 
08:10	37.6	37.6	37.6	75	30.4	0	1	248	0.00	30.179 
08:15	38.2	38.2	38.2	74	30.7	0	1	248	0.00	30.181 
08:20	38.6	38.6	38.6	73	30.7	0	2	248	0.00	30.182 
08:25	39.2	39.2	39.2	71	30.6	0	2	248	0.00	30.185 
08:30	39.8	39.8	39.8	70	30.8	1	2	248	0.00	30.186 
08:35	40.2	40.2	40.2	69	30.9	0	2	248	0.00	30.185 
08:40	40.8	40.8	40.8	68	31.1	0	2	248	0.00	30.184 
08:45	41.3	41.3	41.3	67	31.2	0	2	248	0.00	30.185 
08:50	41.9	41.9	41.9	66	31.4	0	1	248	0.00	30.186 
08:55	42.5	42.5	42.5	64	31.2	0	2	248	0.00	30.187 
09:00	43.1	43.1	43.1	64	31.8	0	2	248	0.00	30.187 
09:05	43.5	43.5	43.5	62	31.4	1	2	248	0.00	30.190 
09:10	43.9	43.9	43.9	61	31.3	1	2	315	0.00	30.189 
09:15	44.3	44.3	44.3	59	30.9	1	2	315	0.00	30.189 
09:20	44.8	44.8	44.8	60	31.8	1	3	315	0.00	30.190 
09:25	45.1	45.1	45.1	58	31.2	1	3	292	0.00	30.191 
09:30	45.4	45.4	45.4	58	31.5	1	3	270	0.00	30.193 
09:35	45.8	45.8	45.8	58	31.9	1	2	270	0.00	30.191 
09:40	46.2	46.2	46.2	58	32.2	1	2	270	0.00	30.192 
09:45	46.5	46.5	46.5	57	32.1	1	3	270	0.00	30.194 
09:50	46.8	46.8	46.8	57	32.4	1	3	248	0.00	30.194 
09:55	47.0	47.0	47.0	56	32.1	1	3	248	0.00	30.196 
10:00	47.1	47.1	47.1	54	31.3	1	3	315	0.00	30.193 
10:05	47.1	47.1	47.1	54	31.3	1	3	315	0.00	30.195 
10:10	47.4	47.4	47.4	55	32.1	2	5	248	0.00	30.193 
10:15	47.7	47.7	47.7	56	32.8	1	4	248	0.00	30.191 
10:20	48.2	48.2	48.2	53	31.9	1	4	248	0.00	30.195 
10:25	48.3	48.3	48.3	54	32.4	1	4	248	0.00	30.196 
10:30	48.6	48.6	48.6	52	31.8	2	4	248	0.00	30.194 
10:35	48.8	48.8	48.8	53	32.4	1	5	248	0.00	30.195 
10:40	48.9	48.9	48.9	52	32.1	1	5	270	0.00	30.197 
10:45	48.8	48.8	48.8	52	32.0	1	3	248	0.00	30.197 
10:50	49.1	49.1	49.1	53	32.7	1	4	270	0.00	30.199 
10:55	48.9	48.9	48.9	51	31.6	2	4	270	0.00	30.202 
11:00	48.8	48.8	48.8	54	32.9	2	4	270	0.00	30.203 
11:05	48.8	48.8	48.8	54	32.9	1	4	270	0.00	30.204 
11:10	49.2	49.2	49.2	53	32.8	1	2	270	0.00	30.204 
11:15	49.4	49.4	49.4	51	32.0	1	4	248	0.00	30.204 
11:20	49.5	49.5	49.5	50	31.6	1	5	248	0.00	30.204 
11:25	49.2	49.2	49.2	51	31.9	1	5	315	0.00	30.205 
11:30	49.2	49.2	49.2	53	32.8	1	2	315	0.00	30.204 
11:35	49.8	49.8	49.8	52	32.9	1	4	248	0.00	30.203 
11:40	49.9	49.9	49.9	51	32.5	1	3	292	0.00	30.203 
11:45	50.2	50.2	50.2	47	30.8	1	4	270	0.00	30.204 
11:50	50.5	50.5	50.5	50	32.6	0	2	248	0.00	30.203 
11:55	50.7	50.7	50.7	47	31.2	1	5	225	0.00	30.202 
12:00	50.8	50.8	50.8	46	30.8	1	5	248	0.00	30.202 
12:05	50.7	50.7	50.7	46	30.7	0	2	315	0.00	30.204 
12:10	50.8	50.8	50.8	47	31.3	1	4	315	0.00	30.205 
12:15	50.8	50.8	50.8	47	31.3	0	1	315	0.00	30.202 
12:20	51.1	51.1	51.1	46	31.0	0	2	315	0.00	30.203 
12:25	51.1	51.1	51.1	46	31.0	1	4	315	0.00	30.201 
12:30	51.7	51.7	51.7	49	33.2	0	2	270	0.00	30.198 
12:35	51.7	51.7	51.7	46	31.6	1	4	315	0.00	30.198 
12:40	51.6	51.6	51.6	48	32.6	1	4	292	0.00	30.198 
12:45	51.7	51.7	51.7	49	33.2	1	3	270	0.00	30.195 
12:50	51.9	51.9	51.9	46	31.8	1	4	270	0.00	30.193 
12:55	52.0	52.0	52.0	46	31.9	2	4	248	0.00	30.192 
13:00	52.3	52.3	52.3	45	31.6	1	2	315	0.00	30.191 
13:05	52.3	52.3	52.3	45	31.6	1	4	315	0.00	30.196 
13:10	52.6	52.6	52.6	44	31.3	1	4	22	0.00	30.192 
13:15	52.8	52.8	52.8	43	30.9	1	3	270	0.00	30.194 
13:20	52.6	52.6	52.6	43	30.7	1	4	315	0.00	30.195 
13:25	52.3	52.3	52.3	41	29.3	1	3	315	0.00	30.192 
13:30	52.6	52.6	52.6	43	30.7	1	4	248	0.00	30.191 
13:35	52.9	52.9	52.9	43	31.0	1	3	315	0.00	30.191 
13:40	52.5	52.5	52.5	43	30.7	1	4	292	0.00	30.191 
13:45	52.5	52.5	52.5	47	32.9	0	2	292	0.00	30.191 
13:50	53.1	53.1	53.1	43	31.2	1	3	270	0.00	30.189 
13:55	52.9	52.9	52.9	43	31.0	1	3	338	0.00	30.188 
14:00	52.8	52.8	52.8	44	31.5	1	4	338	0.00	30.186 
14:05	53.1	53.1	53.1	43	31.2	1	2	292	0.00	30.190 
14:10	53.3	53.3	53.3	43	31.4	2	4	248	0.00	30.187 
14:15	53.1	53.1	53.1	41	30.0	1	4	315	0.00	30.187 
14:20	52.9	52.9	52.9	42	30.4	0	2	248	0.00	30.185 
14:25	53.2	53.2	53.2	42	30.7	1	4	248	0.00	30.179 
14:30	53.5	53.5	53.5	41	30.4	1	4	270	0.00	30.182 
14:35	53.5	53.5	53.5	44	32.1	0	2	270	0.00	30.184 
14:40	53.5	53.5	53.5	41	30.4	1	3	270	0.00	30.186 
14:45	53.2	53.2	53.2	44	31.9	1	4	315	0.00	30.187 
14:50	53.8	53.8	53.8	42	31.3	1	3	225	0.00	30.185 
14:55	53.9	53.9	53.9	42	31.3	0	1	225	0.00	30.184 
15:00	54.1	54.1	54.1	40	30.3	0	2	270	0.00	30.181 
15:05	53.9	53.9	53.9	40	30.1	0	1	270	0.00	30.182 
15:10	53.9	53.9	53.9	40	30.1	1	3	270	0.00	30.183 
15:15	53.8	53.8	53.8	39	29.4	1	3	338	0.00	30.185 
15:20	53.5	53.5	53.5	39	29.2	0	2	338	0.00	30.183 
15:25	53.5	53.5	53.5	40	29.8	1	3	338	0.00	30.184 
15:30	53.6	53.6	53.6	40	29.9	0	2	315	0.00	30.186 
15:35	53.8	53.8	53.8	42	31.3	0	2	292	0.00	30.186 
15:40	53.9	53.9	53.9	40	30.1	1	2	248	0.00	30.186 
15:45	53.8	53.8	53.8	40	30.1	0	1	270	0.00	30.186 
15:50	53.6	53.6	53.6	38	28.6	1	3	270	0.00	30.184 
15:55	53.5	53.5	53.5	39	29.2	0	2	315	0.00	30.188 
16:00	53.5	53.5	53.5	38	28.5	1	5	315	0.00	30.192 
16:05	53.5	53.5	53.5	36	27.2	1	2	270	0.00	30.194 
16:10	53.3	53.3	53.3	38	28.3	1	3	315	0.00	30.195 
16:15	53.2	53.2	53.2	36	26.9	0	2	248	0.00	30.195 
16:20	53.1	53.1	53.1	38	28.2	0	2	315	0.00	30.196 
16:25	52.9	52.9	52.9	39	28.6	0	1	315	0.00	30.197 
16:30	52.6	52.6	52.6	38	27.7	0	1	315	0.00	30.197 
16:35	52.5	52.5	52.5	38	27.6	0	1	315	0.00	30.198 
16:40	52.3	52.3	52.3	38	27.5	0	1	315	0.00	30.199 
16:45	52.2	52.2	52.2	37	26.7	0	1	315	0.00	30.200 
16:50	52.2	52.2	52.2	36	26.1	0	1	315	0.00	30.203 
16:55	51.9	51.9	51.9	38	27.1	0	1	315	0.00	30.203 
17:00	51.6	51.6	51.6	39	27.5	0	1	315	0.00	30.203 
17:05	51.3	51.3	51.3	39	27.2	0	1	315	0.00	30.205 
17:10	51.0	51.0	51.0	40	27.5	0	0	---	0.00	30.203 
17:15	50.7	50.7	50.7	41	27.9	0	0	---	0.00	30.202 
17:20	50.4	50.4	50.4	42	28.2	0	0	---	0.00	30.204 
17:25	49.9	49.9	49.9	43	28.3	0	0	---	0.00	30.204 
17:30	49.4	49.4	49.4	44	28.4	0	0	---	0.00	30.204 
17:35	48.9	48.9	48.9	44	28.0	0	0	---	0.00	30.204 
17:40	48.3	48.3	48.3	46	28.5	0	0	---	0.00	30.205 
17:45	47.7	47.7	47.7	47	28.5	0	0	---	0.00	30.208 
17:50	47.3	47.3	47.3	48	28.6	0	0	---	0.00	30.211 
17:55	46.5	46.5	46.5	51	29.4	0	0	---	0.00	30.214 
18:00	45.8	45.8	45.8	53	29.7	0	0	---	0.00	30.218 
18:05	45.2	45.2	45.2	54	29.6	0	0	---	0.00	30.220 
18:10	44.6	44.6	44.6	56	29.9	0	0	---	0.00	30.222 
18:15	44.1	44.1	44.1	58	30.3	0	0	---	0.00	30.223 
18:20	43.6	43.6	43.6	59	30.2	0	0	---	0.00	30.224 
18:25	43.2	43.2	43.2	60	30.3	0	0	---	0.00	30.225 
18:30	42.8	42.8	42.8	62	30.7	0	0	---	0.00	30.230 
18:35	42.2	42.2	42.2	61	29.7	0	0	---	0.00	30.232 
18:40	41.9	41.9	41.9	62	29.8	0	0	---	0.00	30.235 
18:45	41.6	41.6	41.6	63	30.0	0	0	---	0.00	30.235 
18:50	41.2	41.2	41.2	64	30.0	0	0	---	0.00	30.238 
18:55	40.9	40.9	40.9	65	30.1	0	0	---	0.00	30.237 
19:00	40.6	40.6	40.6	66	30.1	0	0	---	0.00	30.237 
19:05	40.3	40.3	40.3	66	29.9	0	0	---	0.00	30.235 
19:10	40.1	40.1	40.1	66	29.7	0	0	---	0.00	30.236 
19:15	39.8	39.8	39.8	68	30.1	0	0	---	0.00	30.235 
19:20	39.3	39.3	39.3	69	30.0	0	0	---	0.00	30.235 
19:25	39.1	39.1	39.1	70	30.2	0	0	---	0.00	30.237 
19:30	38.9	38.9	38.9	71	30.3	0	0	---	0.00	30.237 
19:35	38.6	38.6	38.6	71	30.0	0	0	---	0.00	30.238 
19:40	38.3	38.3	38.3	72	30.1	0	0	---	0.00	30.241 
19:45	38.0	38.0	38.0	72	29.8	0	0	---	0.00	30.240 
19:50	37.6	37.6	37.6	73	29.7	0	0	---	0.00	30.239 
19:55	37.3	37.3	37.3	74	29.8	0	0	---	0.00	30.240 
20:00	37.0	37.0	37.0	75	29.8	0	0	---	0.00	30.240 
20:05	36.9	36.9	36.9	76	30.1	0	0	---	0.00	30.235 
20:10	36.6	36.6	36.6	76	29.8	0	0	---	0.00	30.235 
20:15	36.5	36.5	36.5	77	30.0	0	0	---	0.00	30.235 
20:20	36.2	36.2	36.2	78	30.0	0	0	---	0.00	30.237 
20:25	36.2	36.2	36.2	79	30.3	0	0	---	0.00	30.239 
20:30	36.0	36.0	36.0	79	30.1	0	0	---	0.00	30.242 
20:35	35.9	35.9	35.9	79	30.0	0	0	---	0.00	30.243 
20:40	35.8	35.8	35.8	80	30.2	0	0	---	0.00	30.248 
20:45	35.8	35.8	35.8	80	30.2	0	0	---	0.00	30.248 
20:50	35.6	35.6	35.6	81	30.4	0	0	---	0.00	30.251 
20:55	35.5	35.5	35.5	81	30.3	0	0	---	0.00	30.252 
21:00	35.3	35.3	35.3	81	30.1	0	0	---	0.00	30.252 
21:05	35.2	35.2	35.2	81	30.0	0	0	---	0.00	30.248 
21:10	35.0	35.0	35.0	82	30.1	0	0	---	0.00	30.250 
21:15	34.7	34.7	34.7	82	29.8	0	0	---	0.00	30.249 
21:20	34.6	34.6	34.6	82	29.7	0	0	---	0.00	30.248 
21:25	34.4	34.4	34.4	83	29.8	0	0	---	0.00	30.249 
21:30	34.1	34.1	34.1	83	29.5	0	0	---	0.00	30.248 
21:35	34.0	34.0	34.0	84	29.7	0	0	---	0.00	30.246 
21:40	33.8	33.8	33.8	84	29.5	0	0	---	0.00	30.244 
21:45	33.7	33.7	33.7	85	29.7	0	0	---	0.00	30.246 
21:50	33.7	33.7	33.7	85	29.7	0	0	---	0.00	30.244 
21:55	33.5	33.5	33.5	85	29.5	0	0	---	0.00	30.241 
22:00	33.5	33.5	33.5	86	29.8	0	0	---	0.00	30.242 
22:05	33.4	33.4	33.4	86	29.7	0	0	---	0.00	30.238 
22:10	33.2	33.2	33.2	86	29.5	0	0	---	0.00	30.242 
22:15	33.1	33.1	33.1	86	29.4	0	0	---	0.00	30.241 
22:20	32.9	32.9	32.9	86	29.2	0	0	---	0.00	30.243 
22:25	32.9	32.9	32.9	86	29.2	0	0	---	0.00	30.247 
22:30	32.8	32.8	32.8	87	29.4	0	0	---	0.00	30.247 
22:35	32.8	32.8	32.8	87	29.4	0	0	---	0.00	30.250 
22:40	32.8	32.8	32.8	87	29.4	0	0	---	0.00	30.248 
22:45	32.7	32.7	32.7	87	29.3	0	0	---	0.00	30.249 
22:50	32.7	32.7	32.7	87	29.3	0	0	---	0.00	30.249 
22:55	32.5	32.5	32.5	87	29.1	0	0	---	0.00	30.250 
23:00	32.4	32.4	32.4	88	29.3	0	0	---	0.00	30.251 
23:05	32.2	32.2	32.2	88	29.1	0	0	---	0.00	30.250 
23:10	32.2	32.2	32.2	88	29.1	0	0	---	0.00	30.249 
23:15	32.1	32.1	32.1	88	29.0	0	0	---	0.00	30.251 
23:20	31.9	31.9	31.9	88	28.8	0	0	---	0.00	30.251 
23:25	31.8	31.8	31.8	88	28.7	0	0	---	0.00	30.250 
23:30	31.6	31.6	31.6	88	28.5	0	0	---	0.00	30.249 
23:35	31.5	31.5	31.5	88	28.4	0	0	---	0.00	30.247 
23:40	31.3	31.3	31.3	89	28.4	0	0	---	0.00	30.247 
23:45	31.2	31.2	31.2	89	28.3	0	0	---	0.00	30.248 
23:50	31.2	31.2	31.2	89	28.3	0	0	---	0.00	30.249 
23:55	31.2	31.2	31.2	90	28.6	0	0	---	0.00	30.251 

CoCoRaHS
IN-AL-39
A2 Web Hosting
Creative Commons License
GoDaddy
Look for:

loaded 2017-10-19 12:12:26 • last modified 2010-11-18 10:43:29
Privacy PolicyDisclaimer
• wx.awcolley.com is powered by PmWiki v.2002016 •
• all content (unless otherwise noted) © 2017 A W Colley